createdAt,value
2018-01-15T00:01:35.263Z,46.40
2018-01-15T00:04:03.970Z,43.17
2018-01-15T00:06:33.850Z,48.23
2018-01-15T00:09:02.786Z,45.77
2018-01-15T00:11:31.886Z,43.57
2018-01-15T00:14:01.769Z,47.00
2018-01-15T00:16:30.876Z,46.07
2018-01-15T00:18:59.810Z,45.53
2018-01-15T00:21:29.691Z,42.80
2018-01-15T00:23:58.785Z,45.57
2018-01-15T00:26:27.905Z,46.47
2018-01-15T00:28:56.797Z,44.43
2018-01-15T00:31:25.898Z,44.17
2018-01-15T00:33:55.775Z,44.97
2018-01-15T00:36:24.887Z,46.17
2018-01-15T00:38:54.009Z,47.10
2018-01-15T00:41:22.903Z,46.63
2018-01-15T00:43:52.036Z,43.60
2018-01-15T00:46:20.908Z,41.90
2018-01-15T00:48:49.470Z,48.37
2018-01-15T00:51:18.030Z,44.03
2018-01-15T00:53:46.943Z,44.47
2018-01-15T00:56:16.047Z,41.47
2018-01-15T00:58:45.161Z,48.10
2018-01-15T01:01:14.293Z,45.47
2018-01-15T01:03:43.399Z,47.40
2018-01-15T01:06:12.503Z,45.30
2018-01-15T01:08:42.385Z,46.10
2018-01-15T01:11:11.494Z,45.00
2018-01-15T01:13:40.604Z,44.90
2018-01-15T01:16:09.708Z,47.57
2018-01-15T01:18:38.841Z,48.93
2018-01-15T01:21:07.956Z,48.83
2018-01-15T01:23:36.858Z,48.77
2018-01-15T01:26:05.962Z,47.43
2018-01-15T01:28:35.060Z,44.37
2018-01-15T01:31:04.183Z,46.53
2018-01-15T01:33:33.309Z,46.57
2018-01-15T01:36:02.410Z,50.10
2018-01-15T01:38:31.516Z,48.70
2018-01-15T01:41:01.389Z,47.67
2018-01-15T01:43:30.497Z,49.73
2018-01-15T01:45:59.672Z,47.30
2018-01-15T01:48:28.796Z,48.23
2018-01-15T01:50:57.913Z,50.63
2018-01-15T01:53:27.016Z,50.87
2018-01-15T01:55:56.127Z,55.13
2018-01-15T01:58:25.219Z,59.50
2018-01-15T02:00:54.335Z,65.10
2018-01-15T02:03:23.452Z,67.73
2018-01-15T02:05:52.553Z,62.67
2018-01-15T02:08:21.665Z,70.17
2018-01-15T02:10:50.819Z,69.07
2018-01-15T02:13:20.718Z,73.77
2018-01-15T02:15:49.827Z,66.43
2018-01-15T02:18:19.716Z,65.00
2018-01-15T02:20:48.824Z,69.67
2018-01-15T02:23:17.930Z,68.27
2018-01-15T02:25:48.553Z,66.90
2018-01-15T02:28:17.343Z,61.77
2018-01-15T02:30:46.233Z,65.37
2018-01-15T02:33:15.346Z,67.33
2018-01-15T02:35:44.138Z,64.93
2018-01-15T02:38:13.258Z,67.57
2018-01-15T02:40:42.355Z,61.30
2018-01-15T02:43:11.471Z,59.13
2018-01-15T02:45:40.357Z,54.03
2018-01-15T02:48:09.253Z,53.27
2018-01-15T02:50:38.140Z,52.90
2018-01-15T02:53:07.045Z,51.57
2018-01-15T02:55:36.908Z,48.03
2018-01-15T02:58:06.012Z,49.37
2018-01-15T03:00:35.132Z,53.17
2018-01-15T03:03:03.908Z,51.60
2018-01-15T03:05:33.029Z,53.93
2018-01-15T03:08:02.123Z,56.33
2018-01-15T03:10:31.236Z,59.93
2018-01-15T03:13:00.457Z,55.47
2018-01-15T03:15:29.572Z,58.93
2018-01-15T03:17:58.677Z,59.07
2018-01-15T03:20:27.772Z,57.13
2018-01-15T03:22:56.876Z,55.27
2018-01-15T03:25:25.993Z,57.90
2018-01-15T03:27:55.110Z,58.63
2018-01-15T03:30:23.977Z,58.13
2018-01-15T03:32:53.085Z,55.07
2018-01-15T03:35:22.190Z,57.37
2018-01-15T03:37:51.311Z,55.70
2018-01-15T03:40:20.423Z,51.73
2018-01-15T03:42:49.877Z,55.67
2018-01-15T03:45:18.971Z,52.33
2018-01-15T03:47:48.857Z,51.97
2018-01-15T03:50:17.948Z,54.90
2018-01-15T03:52:47.072Z,55.03
2018-01-15T03:55:15.977Z,55.30
2018-01-15T03:57:45.085Z,55.30
2018-01-15T04:00:14.192Z,53.33
2018-01-15T04:02:44.067Z,53.27
2018-01-15T04:05:13.192Z,52.00
2018-01-15T04:07:43.051Z,55.27
2018-01-15T04:10:12.161Z,51.93
2018-01-15T04:12:41.253Z,57.60
2018-01-15T04:15:10.385Z,50.43
2018-01-15T04:17:39.513Z,56.13
2018-01-15T04:20:08.401Z,56.60
2018-01-15T04:22:37.511Z,56.57
2018-01-15T04:25:06.629Z,57.33
2018-01-15T04:27:35.738Z,57.03
2018-01-15T04:30:04.835Z,62.37
2018-01-15T04:32:33.969Z,61.40
2018-01-15T04:35:03.058Z,55.90
2018-01-15T04:37:32.167Z,58.50
2018-01-15T04:40:01.362Z,57.30
2018-01-15T04:42:30.277Z,57.83
2018-01-15T04:44:59.167Z,52.67
2018-01-15T04:47:28.273Z,57.53
2018-01-15T04:49:57.164Z,55.00
2018-01-15T04:52:26.285Z,54.40
2018-01-15T04:54:56.034Z,51.87
2018-01-15T04:57:25.146Z,55.43
2018-01-15T04:59:54.244Z,58.80
2018-01-15T05:02:23.340Z,53.97
2018-01-15T05:04:52.444Z,54.00
2018-01-15T05:07:21.532Z,55.47
2018-01-15T05:09:50.646Z,58.63
2018-01-15T05:12:19.769Z,55.97
2018-01-15T05:14:48.877Z,56.43
2018-01-15T05:17:17.989Z,58.00
2018-01-15T05:19:47.098Z,58.83
2018-01-15T05:22:16.209Z,57.60
2018-01-15T05:24:45.440Z,58.63
2018-01-15T05:27:14.560Z,59.07
2018-01-15T05:29:43.669Z,60.60
2018-01-15T05:32:12.768Z,55.20
2018-01-15T05:34:41.879Z,55.20
2018-01-15T05:37:10.991Z,58.90
2018-01-15T05:39:40.108Z,59.97
2018-01-15T05:42:09.989Z,59.60
2018-01-15T05:44:39.091Z,60.67
2018-01-15T05:47:08.207Z,58.13
2018-01-15T05:49:37.308Z,64.33
2018-01-15T05:52:06.439Z,58.17
2018-01-15T05:54:36.327Z,58.67
2018-01-15T05:57:06.029Z,61.93
2018-01-15T05:59:35.154Z,63.63
2018-01-15T06:02:04.257Z,61.23
2018-01-15T06:04:33.380Z,60.20
2018-01-15T06:07:02.572Z,63.37
2018-01-15T06:09:32.484Z,63.60
2018-01-15T06:12:01.587Z,63.80
2018-01-15T06:14:31.456Z,64.03
2018-01-15T06:17:00.590Z,63.57
2018-01-15T06:19:29.902Z,62.60
2018-01-15T06:21:59.004Z,62.13
2018-01-15T06:24:28.917Z,67.43
2018-01-15T06:26:58.017Z,72.57
2018-01-15T06:29:27.686Z,73.03
2018-01-15T06:31:56.625Z,72.50
2018-01-15T06:34:25.513Z,68.03
2018-01-15T06:36:54.418Z,71.60
2018-01-15T06:39:23.308Z,72.60
2018-01-15T06:41:52.444Z,76.53
2018-01-15T06:44:21.567Z,75.30
2018-01-15T06:46:50.680Z,88.17
2018-01-15T06:49:19.792Z,70.57
2018-01-15T06:51:48.930Z,70.60
2018-01-15T06:54:18.040Z,73.53
2018-01-15T06:56:47.156Z,78.70
2018-01-15T06:59:16.261Z,86.73
2018-01-15T07:01:45.368Z,76.70
2018-01-15T07:04:14.517Z,93.43
2018-01-15T07:06:44.408Z,83.80
2018-01-15T07:09:13.655Z,82.17
2018-01-15T07:11:42.735Z,85.90
2018-01-15T07:14:12.611Z,89.23
2018-01-15T07:16:41.723Z,90.23
2018-01-15T07:19:10.850Z,94.50
2018-01-15T07:21:40.038Z,83.00
2018-01-15T07:24:09.223Z,90.87
2018-01-15T07:26:39.239Z,80.30
2018-01-15T07:29:08.369Z,80.83
2018-01-15T07:31:37.488Z,75.40
2018-01-15T07:34:06.573Z,66.80
2018-01-15T07:36:35.686Z,73.00
2018-01-15T07:39:04.984Z,72.40
2018-01-15T07:41:34.096Z,67.43
2018-01-15T07:44:03.958Z,69.30
2018-01-15T07:46:33.070Z,64.20
2018-01-15T07:49:02.180Z,63.93
2018-01-15T07:51:31.304Z,61.90
2018-01-15T07:54:00.430Z,64.13
2018-01-15T07:56:29.542Z,55.60
2018-01-15T07:58:58.641Z,58.37
2018-01-15T08:01:27.767Z,57.47
2018-01-15T08:03:56.890Z,52.80
2018-01-15T08:06:26.009Z,52.00
2018-01-15T08:08:55.116Z,50.30
2018-01-15T08:11:24.238Z,52.40
2018-01-15T08:13:53.355Z,43.17
2018-01-15T08:16:22.624Z,41.50
2018-01-15T08:18:51.503Z,36.70
2018-01-15T08:21:21.418Z,37.03
2018-01-15T08:23:50.532Z,35.20
2018-01-15T08:26:19.426Z,30.80
2018-01-15T08:28:48.332Z,31.90
2018-01-15T08:31:17.467Z,29.07
2018-01-15T08:33:46.350Z,28.73
2018-01-15T08:36:15.481Z,28.93
2018-01-15T08:38:44.592Z,28.13
2018-01-15T08:41:13.712Z,26.83
2018-01-15T08:43:43.607Z,26.57
2018-01-15T08:46:12.721Z,28.13
2018-01-15T08:48:42.592Z,27.77
2018-01-15T08:51:11.730Z,27.37
2018-01-15T08:53:40.900Z,26.40
2018-01-15T08:56:10.016Z,27.83
2018-01-15T08:58:39.134Z,29.13
2018-01-15T09:01:09.018Z,24.73
2018-01-15T09:03:38.398Z,28.23
2018-01-15T09:06:07.514Z,25.40
2018-01-15T09:08:36.628Z,27.83
2018-01-15T09:11:05.759Z,25.93
2018-01-15T09:13:34.876Z,22.87
2018-01-15T09:16:04.415Z,24.63
2018-01-15T09:18:33.606Z,24.50
2018-01-15T09:21:02.747Z,27.47
2018-01-15T09:23:31.856Z,24.80
2018-01-15T09:26:00.973Z,23.73
2018-01-15T09:28:30.081Z,24.47
2018-01-15T09:30:59.197Z,24.77
2018-01-15T09:33:28.329Z,26.80
2018-01-15T09:35:57.431Z,25.80
2018-01-15T09:38:26.551Z,29.70
2018-01-15T09:40:55.665Z,27.40
2018-01-15T09:43:24.780Z,26.13
2018-01-15T09:45:54.665Z,31.03
2018-01-15T09:48:23.778Z,28.13
2018-01-15T09:50:52.716Z,33.43
2018-01-15T09:53:22.592Z,33.00
2018-01-15T09:55:51.716Z,32.20
2018-01-15T09:58:20.632Z,35.47
2018-01-15T10:00:49.746Z,34.67
2018-01-15T10:03:18.876Z,39.00
2018-01-15T10:05:48.046Z,36.90
2018-01-15T10:08:17.210Z,37.87
2018-01-15T10:10:46.334Z,38.87
2018-01-15T10:13:16.191Z,36.57
2018-01-15T10:15:45.330Z,38.63
2018-01-15T10:18:14.438Z,37.93
2018-01-15T10:20:43.328Z,37.17
2018-01-15T10:23:12.245Z,37.23
2018-01-15T10:25:41.894Z,38.33
2018-01-15T10:28:12.844Z,38.73
2018-01-15T10:30:41.944Z,33.10
2018-01-15T10:33:10.853Z,36.93
2018-01-15T10:35:39.971Z,34.83
2018-01-15T10:38:09.093Z,35.67
2018-01-15T10:40:38.286Z,31.07
2018-01-15T10:43:08.179Z,32.67
2018-01-15T10:45:37.358Z,30.20
2018-01-15T10:48:06.482Z,28.70
2018-01-15T10:50:35.595Z,29.23
2018-01-15T10:53:04.722Z,26.23
2018-01-15T10:55:33.845Z,27.53
2018-01-15T10:58:03.136Z,26.80
2018-01-15T11:00:37.662Z,27.80
2018-01-15T11:03:06.961Z,25.33
2018-01-15T11:05:36.082Z,24.77
2018-01-15T11:08:05.192Z,24.63
2018-01-15T11:10:34.310Z,24.70
2018-01-15T11:13:03.429Z,27.77
2018-01-15T11:15:32.586Z,22.63
2018-01-15T11:18:01.478Z,24.90
2018-01-15T11:20:30.589Z,21.83
2018-01-15T11:22:59.711Z,24.00
2018-01-15T11:25:28.903Z,25.97
2018-01-15T11:27:58.161Z,23.57
2018-01-15T11:30:27.295Z,25.07
2018-01-15T11:32:56.413Z,21.93
2018-01-15T11:35:25.544Z,23.23
2018-01-15T11:37:54.684Z,23.47
2018-01-15T11:40:23.801Z,23.00
2018-01-15T11:42:52.956Z,20.50
2018-01-15T11:45:22.838Z,19.43
2018-01-15T11:47:51.963Z,14.97
2018-01-15T11:50:21.079Z,15.93
2018-01-15T11:52:50.215Z,15.50
2018-01-15T11:55:19.353Z,14.50
2018-01-15T11:57:48.467Z,13.00
2018-01-15T12:00:17.579Z,11.87
2018-01-15T12:02:47.260Z,14.00
2018-01-15T12:05:16.145Z,11.63
2018-01-15T12:07:45.282Z,11.83
2018-01-15T12:10:14.185Z,14.00
2018-01-15T12:12:43.104Z,13.33
2018-01-15T12:15:12.246Z,10.67
2018-01-15T12:17:41.348Z,11.83
2018-01-15T12:20:10.488Z,10.03
2018-01-15T12:22:39.576Z,9.63
2018-01-15T12:25:08.664Z,8.00
2018-01-15T12:27:37.774Z,9.50
2018-01-15T12:30:06.894Z,8.80
2018-01-15T12:32:36.011Z,7.70
2018-01-15T12:35:05.118Z,7.63
2018-01-15T12:37:34.233Z,8.43
2018-01-15T12:40:03.327Z,8.70
2018-01-15T12:42:32.650Z,8.23
2018-01-15T12:45:01.765Z,7.83
2018-01-15T12:47:31.678Z,8.87
2018-01-15T12:50:00.770Z,10.40
2018-01-15T12:52:30.404Z,10.20
2018-01-15T12:54:59.520Z,9.53
2018-01-15T12:57:28.618Z,8.20
2018-01-15T12:59:57.726Z,8.37
2018-01-15T13:02:26.838Z,9.47
2018-01-15T13:04:55.945Z,8.50
2018-01-15T13:07:36.257Z,10.17
2018-01-15T13:10:05.341Z,8.80
2018-01-15T13:12:34.458Z,8.27
2018-01-15T13:15:03.986Z,10.80
2018-01-15T13:17:33.106Z,8.77
2018-01-15T13:20:02.207Z,9.63
2018-01-15T13:22:31.338Z,9.97
2018-01-15T13:25:00.464Z,8.80
2018-01-15T13:27:29.590Z,9.33
2018-01-15T13:29:58.680Z,9.10
2018-01-15T13:32:27.977Z,9.87
2018-01-15T13:34:57.079Z,9.50
2018-01-15T13:37:26.233Z,9.60
2018-01-15T13:39:55.348Z,10.43
2018-01-15T13:42:24.457Z,9.07
2018-01-15T13:44:53.565Z,7.90
2018-01-15T13:47:22.455Z,9.73
2018-01-15T13:49:51.344Z,10.07
2018-01-15T13:52:20.240Z,9.07
2018-01-15T13:54:49.142Z,10.10
2018-01-15T13:57:18.241Z,9.47
2018-01-15T13:59:47.158Z,9.10
2018-01-15T14:02:17.206Z,9.10
2018-01-15T14:04:46.339Z,8.40
2018-01-15T14:07:15.445Z,8.97
2018-01-15T14:09:44.591Z,9.20
2018-01-15T14:12:13.701Z,7.97
2018-01-15T14:14:42.802Z,7.43
2018-01-15T14:17:11.907Z,7.53
2018-01-15T14:19:41.790Z,6.80
2018-01-15T14:22:10.919Z,8.07
2018-01-15T14:24:40.031Z,7.03
2018-01-15T14:27:09.158Z,6.80
2018-01-15T14:29:38.294Z,9.03
2018-01-15T14:32:07.400Z,7.40
2018-01-15T14:34:36.494Z,7.40
2018-01-15T14:37:05.793Z,7.63
2018-01-15T14:39:34.900Z,7.50
2018-01-15T14:42:04.024Z,6.60
2018-01-15T14:44:33.129Z,6.87
2018-01-15T14:47:02.233Z,7.57
2018-01-15T14:49:31.345Z,7.17
2018-01-15T14:52:00.465Z,6.83
2018-01-15T14:54:29.603Z,6.63
2018-01-15T14:56:58.703Z,6.77
2018-01-15T14:59:28.703Z,7.47
2018-01-15T15:01:57.835Z,5.97
2018-01-15T15:04:26.915Z,5.53
2018-01-15T15:06:56.020Z,6.30
2018-01-15T15:09:24.781Z,5.20
2018-01-15T15:11:53.905Z,5.33
2018-01-15T15:14:23.439Z,7.27
2018-01-15T15:16:52.572Z,6.20
2018-01-15T15:19:21.653Z,5.93
2018-01-15T15:21:50.791Z,6.07
2018-01-15T15:24:19.885Z,6.27
2018-01-15T15:26:49.002Z,6.03
2018-01-15T15:29:18.103Z,6.30
2018-01-15T15:31:47.208Z,6.37
2018-01-15T15:34:17.098Z,5.67
2018-01-15T15:36:46.216Z,5.43
2018-01-15T15:39:15.338Z,5.30
2018-01-15T15:41:44.471Z,5.10
2018-01-15T15:44:13.587Z,4.90
2018-01-15T15:46:42.728Z,5.30
2018-01-15T15:49:11.486Z,5.00
2018-01-15T15:51:40.602Z,4.77
2018-01-15T15:54:09.487Z,4.60
2018-01-15T15:56:38.381Z,5.03
2018-01-15T15:59:07.484Z,4.57
2018-01-15T16:01:36.601Z,3.97
2018-01-15T16:04:05.490Z,5.67
2018-01-15T16:06:34.629Z,4.10
2018-01-15T16:09:03.498Z,3.97
2018-01-15T16:11:32.625Z,3.97
2018-01-15T16:14:01.727Z,4.37
2018-01-15T16:16:30.843Z,5.30
2018-01-15T16:18:59.961Z,4.30
2018-01-15T16:21:35.390Z,6.63
2018-01-15T16:24:04.509Z,4.20
2018-01-15T16:26:33.599Z,4.40
2018-01-15T16:29:02.725Z,4.60
2018-01-15T16:31:31.810Z,4.93
2018-01-15T16:34:00.947Z,4.00
2018-01-15T16:36:30.827Z,3.97
2018-01-15T16:38:59.942Z,4.70
2018-01-15T16:41:29.053Z,4.07
2018-01-15T16:43:58.165Z,4.60
2018-01-15T16:46:28.048Z,4.30
2018-01-15T16:48:57.189Z,4.53
2018-01-15T16:51:26.292Z,4.37
2018-01-15T16:53:55.406Z,4.27
2018-01-15T16:56:24.537Z,4.00
2018-01-15T16:58:53.658Z,4.33
2018-01-15T17:01:22.561Z,5.20
2018-01-15T17:03:51.680Z,4.73
2018-01-15T17:06:21.548Z,6.83
2018-01-15T17:08:50.647Z,4.90
2018-01-15T17:11:19.847Z,4.77
2018-01-15T17:13:48.949Z,5.03
2018-01-15T17:16:18.057Z,6.57
2018-01-15T17:18:47.171Z,5.70
2018-01-15T17:21:16.276Z,6.10
2018-01-15T17:23:45.386Z,5.67
2018-01-15T17:26:14.292Z,6.73
2018-01-15T17:28:43.152Z,6.10
2018-01-15T17:31:12.046Z,7.30
2018-01-15T17:33:40.936Z,7.77
2018-01-15T17:36:09.823Z,6.70
2018-01-15T17:38:38.693Z,6.87
2018-01-15T17:41:07.583Z,6.70
2018-01-15T17:43:36.459Z,7.57
2018-01-15T17:46:05.341Z,7.60
2018-01-15T17:48:34.034Z,7.20
2018-01-15T17:51:02.928Z,6.73
2018-01-15T17:53:31.830Z,7.83
2018-01-15T17:56:00.987Z,10.15
2018-01-15T17:58:29.894Z,8.13
2018-01-15T18:00:58.792Z,7.53
2018-01-15T18:03:27.651Z,8.33
2018-01-15T18:05:56.759Z,8.80
2018-01-15T18:08:25.659Z,9.10
2018-01-15T18:10:54.553Z,9.03
2018-01-15T18:13:23.424Z,9.77
2018-01-15T18:15:52.388Z,10.07
2018-01-15T18:18:21.314Z,11.27
2018-01-15T18:20:50.210Z,12.87
2018-01-15T18:23:19.332Z,12.67
2018-01-15T18:25:48.224Z,13.90
2018-01-15T18:28:17.121Z,14.13
2018-01-15T18:30:46.022Z,14.87
2018-01-15T18:33:15.011Z,14.53
2018-01-15T18:35:43.553Z,16.03
2018-01-15T18:38:12.473Z,16.50
2018-01-15T18:40:41.368Z,14.83
2018-01-15T18:43:11.034Z,16.93
2018-01-15T18:45:39.934Z,15.23
2018-01-15T18:48:09.075Z,17.93
2018-01-15T18:50:37.952Z,12.97
2018-01-15T18:53:06.871Z,13.27
2018-01-15T18:55:35.743Z,15.07
2018-01-15T18:58:04.646Z,13.57
2018-01-15T19:00:33.549Z,12.27
2018-01-15T19:03:02.441Z,15.80
2018-01-15T19:05:31.346Z,20.13
2018-01-15T19:08:00.258Z,14.33
2018-01-15T19:10:29.171Z,8.70
2018-01-15T19:12:58.060Z,9.93
2018-01-15T19:15:26.963Z,14.27
2018-01-15T19:17:55.899Z,13.23
2018-01-15T19:20:24.804Z,11.50
2018-01-15T19:22:53.692Z,11.83
2018-01-15T19:25:22.608Z,9.03
2018-01-15T19:27:52.070Z,8.53
2018-01-15T19:30:20.800Z,12.27
2018-01-15T19:32:49.518Z,10.67
2018-01-15T19:35:18.232Z,14.47
2018-01-15T19:37:46.941Z,13.20
2018-01-15T19:40:16.435Z,14.17
2018-01-15T19:42:45.150Z,12.27
2018-01-15T19:45:19.569Z,15.50
2018-01-15T19:47:53.985Z,14.00
2018-01-15T19:50:28.431Z,16.57
2018-01-15T19:53:03.620Z,9.40
2018-01-15T19:55:38.037Z,11.97
2018-01-15T19:58:12.347Z,16.67
2018-01-15T20:00:56.034Z,7.70
2018-01-15T20:03:30.484Z,6.50
2018-01-15T20:06:04.793Z,10.93
2018-01-15T20:08:39.991Z,8.80
2018-01-15T20:11:09.820Z,9.67
2018-01-15T20:13:38.745Z,14.37
2018-01-15T20:16:07.666Z,8.70
2018-01-15T20:18:36.818Z,9.63
2018-01-15T20:21:05.695Z,9.23
2018-01-15T20:23:34.590Z,6.77
2018-01-15T20:26:03.504Z,16.10
2018-01-15T20:28:32.417Z,6.37
2018-01-15T20:31:01.334Z,9.07
2018-01-15T20:33:30.439Z,9.53
2018-01-15T20:35:59.358Z,7.03
2018-01-15T20:38:28.544Z,12.00
2018-01-15T20:40:57.667Z,10.27
2018-01-15T20:43:26.805Z,8.77
2018-01-15T20:45:55.685Z,10.07
2018-01-15T20:48:24.608Z,13.03
2018-01-15T20:53:32.344Z,8.03
2018-01-15T20:56:01.250Z,12.50
2018-01-15T20:58:30.131Z,8.23
2018-01-15T21:00:59.027Z,10.67
2018-01-15T21:03:28.097Z,15.03
2018-01-15T21:05:57.297Z,11.17
2018-01-15T21:08:27.000Z,6.40
2018-01-15T21:10:55.893Z,8.43
2018-01-15T21:13:24.874Z,18.97
2018-01-15T21:15:53.763Z,9.93
2018-01-15T21:18:22.411Z,12.97
2018-01-15T21:20:51.292Z,13.27
2018-01-15T21:23:20.960Z,13.50
2018-01-15T21:25:49.870Z,14.10
2018-01-15T21:28:18.808Z,13.90
2018-01-15T21:30:47.712Z,14.83
2018-01-15T21:33:16.587Z,13.83
2018-01-15T21:35:45.476Z,13.97
2018-01-15T21:38:14.367Z,11.73
2018-01-15T21:40:43.470Z,14.97
2018-01-15T21:43:13.106Z,10.37
2018-01-15T21:45:41.668Z,10.03
2018-01-15T21:48:10.577Z,6.70
2018-01-15T21:50:39.694Z,7.17
2018-01-15T21:53:08.823Z,11.83
2018-01-15T21:55:38.464Z,9.10
2018-01-15T21:58:07.847Z,7.10
2018-01-15T22:00:36.617Z,10.73
2018-01-15T22:03:05.757Z,7.50
2018-01-15T22:05:34.867Z,12.07
2018-01-15T22:08:04.778Z,15.77
2018-01-15T22:10:34.242Z,12.23
2018-01-15T22:13:03.664Z,12.93
2018-01-15T22:15:32.800Z,11.30
2018-01-15T22:18:01.893Z,8.03
2018-01-15T22:20:40.100Z,12.57
2018-01-15T22:23:11.910Z,7.87
2018-01-15T22:25:41.290Z,14.80
2018-01-15T22:28:10.914Z,11.23
2018-01-15T22:30:40.050Z,11.47
2018-01-15T22:33:08.989Z,10.00
2018-01-15T22:35:37.852Z,9.20
2018-01-15T22:38:06.759Z,12.27
2018-01-15T22:40:36.203Z,12.57
2018-01-15T22:43:05.289Z,16.83
2018-01-15T22:45:34.422Z,13.80
2018-01-15T22:48:03.574Z,14.80
2018-01-15T22:50:32.669Z,11.60
2018-01-15T22:53:01.790Z,13.20
2018-01-15T22:55:30.947Z,10.60
2018-01-15T22:57:59.941Z,9.97
2018-01-15T23:00:29.103Z,6.93
2018-01-15T23:02:57.973Z,7.83
2018-01-15T23:05:26.859Z,11.00
2018-01-15T23:07:55.747Z,11.20
2018-01-15T23:10:25.076Z,11.40
2018-01-15T23:12:53.950Z,8.83
2018-01-15T23:15:22.847Z,7.63
2018-01-15T23:17:51.725Z,8.77
2018-01-15T23:20:20.636Z,6.10
2018-01-15T23:22:49.488Z,9.30
2018-01-15T23:25:18.612Z,7.67
2018-01-15T23:27:47.512Z,8.50
2018-01-15T23:30:16.422Z,14.67
2018-01-15T23:32:45.287Z,12.43
2018-01-15T23:35:14.190Z,12.47
2018-01-15T23:37:43.068Z,10.07
2018-01-15T23:40:11.969Z,8.53
2018-01-15T23:42:40.837Z,8.77
2018-01-15T23:45:09.738Z,9.43
2018-01-15T23:47:38.613Z,4.93
2018-01-15T23:50:08.264Z,7.30
2018-01-15T23:52:37.149Z,5.10
2018-01-15T23:55:05.727Z,10.10
2018-01-15T23:57:34.617Z,7.83
